Time;durP1;ratioP1;P1;durP2;ratioP2;P2;SDS_P1;SDS_P2;PMS_P1;PMS_P2;Temp;Humidity;BMP_temperature;BMP_pressure;BME280_temperature;BME280_humidity;BME280_pressure;Samples;Min_cycle;Max_cycle;Signal;HPM_P1;HPM_P2
2022/03/14 00:01:40;;;;;;;;;;;;;;;10.96;68.77;101664.91;5006022;28;19944;-73
2022/03/14 00:04:06;;;;;;;;;;;;;;;10.94;69.04;101675.47;5019848;28;20012;-73
2022/03/14 00:06:32;;;;;;;;;;;;;;;11.00;68.43;101670.94;5008944;28;20339;-73
2022/03/14 00:08:57;;;;;;;;;;;;;;;10.87;68.94;101671.34;5006055;28;19928;-72
2022/03/14 00:11:26;;;;;;;;;;;;;;;10.84;69.43;101679.34;5007368;28;20373;-72
2022/03/14 00:13:53;;;;;;;;;;;;;;;10.81;69.22;101674.19;5007936;28;19917;-73
2022/03/14 00:16:23;;;;;;;;;;;;;;;10.86;68.90;101674.03;5005835;28;19976;-73
2022/03/14 00:18:50;;;;;;;;;;;;;;;10.76;69.43;101684.00;5008643;28;19929;-72
2022/03/14 00:21:20;;;;;;;;;;;;;;;10.85;69.05;101678.44;5006070;28;20013;-73
2022/03/14 00:23:45;;;;;;;;;;;;;;;10.76;69.66;101676.13;5008714;28;19972;-73
2022/03/14 00:26:11;;;;;;;;;;;;;;;10.77;69.62;101676.06;5006152;28;20047;-73
2022/03/14 00:28:37;;;;;;;;;;;;;;;10.67;69.74;101679.91;5006981;28;19979;-72
2022/03/14 00:31:02;;;;;;;;;;;;;;;10.62;70.24;101674.81;5005887;28;20309;-70
2022/03/14 00:33:27;;;;;;;;;;;;;;;10.50;70.52;101676.09;5006469;28;19932;-72
2022/03/14 00:35:55;;;;;;;;;;;;;;;10.41;70.48;101667.63;5007079;28;19940;-71
2022/03/14 00:38:20;;;;;;;;;;;;;;;10.60;70.00;101683.66;5003933;28;20029;-71
2022/03/14 00:40:46;;;;;;;;;;;;;;;10.41;70.63;101694.78;5005861;28;20423;-72
2022/03/14 00:43:11;;;;;;;;;;;;;;;10.38;71.01;101691.38;5004729;28;19937;-73
2022/03/14 00:45:37;;;;;;;;;;;;;;;10.24;71.55;101695.28;5008333;28;19928;-74
2022/03/14 00:48:02;;;;;;;;;;;;;;;10.24;71.52;101700.53;5005582;28;19960;-71
2022/03/14 00:50:27;;;;;;;;;;;;;;;10.24;71.67;101697.03;5006520;28;19925;-72
2022/03/14 00:52:53;;;;;;;;;;;;;;;10.27;71.77;101700.44;5018138;28;19926;-71
2022/03/14 00:55:18;;;;;;;;;;;;;;;10.16;72.11;101699.91;4985261;28;20593;-72
2022/03/14 00:57:43;;;;;;;;;;;;;;;10.14;72.18;101697.34;4987660;28;19923;-73
2022/03/14 01:00:09;;;;;;;;;;;;;;;10.17;72.14;101694.63;4985314;28;20012;-72
2022/03/14 01:02:34;;;;;;;;;;;;;;;10.22;72.03;101704.97;5007192;28;19917;-72
2022/03/14 01:05:00;;;;;;;;;;;;;;;10.29;71.73;101709.13;5005488;28;19921;-70
2022/03/14 01:07:25;;;;;;;;;;;;;;;10.26;71.78;101711.00;5005153;28;19917;-70
2022/03/14 01:09:50;;;;;;;;;;;;;;;10.27;71.57;101708.31;5006453;28;20418;-71
2022/03/14 01:12:16;;;;;;;;;;;;;;;10.31;71.53;101712.56;5004815;28;19927;-72
2022/03/14 01:14:43;;;;;;;;;;;;;;;10.43;70.87;101713.97;5008134;28;20380;-73
2022/03/14 01:17:09;;;;;;;;;;;;;;;10.39;71.12;101722.00;5005415;28;20377;-73
2022/03/14 01:19:34;;;;;;;;;;;;;;;10.42;71.04;101714.88;5008392;28;19927;-73
2022/03/14 01:22:00;;;;;;;;;;;;;;;10.41;71.24;101725.44;5005346;28;19965;-73
2022/03/14 01:24:25;;;;;;;;;;;;;;;10.47;70.96;101726.09;5005758;28;20399;-72
2022/03/14 01:26:51;;;;;;;;;;;;;;;10.38;71.45;101734.28;5006667;28;19918;-72
2022/03/14 01:29:17;;;;;;;;;;;;;;;10.40;71.34;101732.47;5004422;28;19925;-72
2022/03/14 01:31:43;;;;;;;;;;;;;;;10.44;71.50;101730.59;5008138;28;20440;-74
2022/03/14 01:34:08;;;;;;;;;;;;;;;10.36;71.62;101736.91;5005526;28;20012;-72
2022/03/14 01:36:34;;;;;;;;;;;;;;;10.41;71.57;101741.19;5006208;28;20423;-73
2022/03/14 01:39:00;;;;;;;;;;;;;;;10.38;71.77;101741.28;5005978;28;19930;-73
2022/03/14 01:41:27;;;;;;;;;;;;;;;10.34;71.72;101736.13;4987788;28;19929;-73
2022/03/14 01:43:53;;;;;;;;;;;;;;;10.29;71.94;101743.25;5006440;28;19932;-73
2022/03/14 01:46:19;;;;;;;;;;;;;;;10.27;71.95;101747.69;5002626;28;19921;-71
2022/03/14 01:48:44;;;;;;;;;;;;;;;10.22;72.21;101749.63;5020363;28;19918;-72
2022/03/14 01:51:10;;;;;;;;;;;;;;;10.20;72.22;101749.66;5005049;28;19953;-72
2022/03/14 01:53:36;;;;;;;;;;;;;;;10.23;72.34;101759.22;5007411;28;19976;-73
2022/03/14 01:56:02;;;;;;;;;;;;;;;10.38;71.83;101751.78;5005836;28;19918;-71
2022/03/14 01:58:28;;;;;;;;;;;;;;;10.30;71.99;101744.16;5005464;28;19917;-71
2022/03/14 02:00:53;;;;;;;;;;;;;;;10.29;72.20;101742.41;5005270;28;19921;-72
2022/03/14 02:03:19;;;;;;;;;;;;;;;10.27;72.67;101747.69;5004841;28;19948;-72
2022/03/14 02:05:45;;;;;;;;;;;;;;;10.12;73.55;101742.94;5007315;28;19921;-72
2022/03/14 02:08:11;;;;;;;;;;;;;;;10.18;73.33;101741.00;5004943;28;19929;-71
2022/03/14 02:10:38;;;;;;;;;;;;;;;10.12;73.78;101741.16;5004580;28;20293;-71
2022/03/14 02:13:05;;;;;;;;;;;;;;;9.97;74.76;101750.34;5005699;28;19922;-72
2022/03/14 02:15:30;;;;;;;;;;;;;;;9.90;75.01;101761.94;5005011;28;19921;-72
2022/03/14 02:17:56;;;;;;;;;;;;;;;10.02;74.84;101751.09;5005926;28;20905;-71
2022/03/14 02:20:21;;;;;;;;;;;;;;;9.97;75.11;101763.47;5008164;28;19929;-72
2022/03/14 02:22:46;;;;;;;;;;;;;;;9.83;75.78;101765.63;5009214;28;20260;-72
2022/03/14 02:25:12;;;;;;;;;;;;;;;9.79;76.37;101777.16;5007911;28;19921;-72
2022/03/14 02:27:38;;;;;;;;;;;;;;;9.86;76.01;101779.56;5009173;28;19972;-72
2022/03/14 02:30:03;;;;;;;;;;;;;;;9.88;75.95;101779.50;5007548;28;20776;-72
2022/03/14 02:32:28;;;;;;;;;;;;;;;9.80;76.37;101777.09;5007955;28;20016;-72
2022/03/14 02:34:54;;;;;;;;;;;;;;;9.77;76.41;101771.06;5009957;28;19964;-73
2022/03/14 02:37:19;;;;;;;;;;;;;;;9.80;76.26;101776.25;5007590;28;19922;-72
2022/03/14 02:39:47;;;;;;;;;;;;;;;9.83;76.52;101782.25;5008899;28;19975;-72
2022/03/14 02:42:12;;;;;;;;;;;;;;;9.80;76.17;101774.47;5007592;28;20196;-72
2022/03/14 02:44:41;;;;;;;;;;;;;;;9.90;75.76;101788.19;5008951;28;19960;-73
2022/03/14 02:47:07;;;;;;;;;;;;;;;9.84;75.91;101783.09;5007727;28;19918;-73
2022/03/14 02:49:32;;;;;;;;;;;;;;;9.96;75.46;101790.63;5008077;28;19928;-73
2022/03/14 02:51:58;;;;;;;;;;;;;;;9.88;75.81;101790.00;5008098;28;19921;-72
2022/03/14 02:54:24;;;;;;;;;;;;;;;9.95;75.34;101796.78;5007206;28;19931;-73
2022/03/14 02:56:49;;;;;;;;;;;;;;;9.90;75.77;101798.69;5008799;28;19928;-73
2022/03/14 02:59:14;;;;;;;;;;;;;;;9.98;75.36;101801.97;5006884;28;19921;-73
2022/03/14 03:01:40;;;;;;;;;;;;;;;9.97;75.41;101810.75;4990482;28;19924;-72
2022/03/14 03:04:05;;;;;;;;;;;;;;;9.95;75.62;101815.16;5007883;28;19922;-72
2022/03/14 03:06:33;;;;;;;;;;;;;;;9.86;76.08;101826.81;5007790;28;20288;-72
2022/03/14 03:08:58;;;;;;;;;;;;;;;9.75;76.42;101828.88;5008521;28;19982;-72
2022/03/14 03:11:23;;;;;;;;;;;;;;;9.81;76.62;101826.06;5006936;28;19952;-72
2022/03/14 03:13:50;;;;;;;;;;;;;;;9.79;77.14;101829.63;5008378;28;19928;-72
2022/03/14 03:16:16;;;;;;;;;;;;;;;9.64;78.46;101826.53;5006540;28;19971;-72
2022/03/14 03:18:43;;;;;;;;;;;;;;;9.52;79.83;101832.09;5010378;28;19953;-72
2022/03/14 03:21:08;;;;;;;;;;;;;;;9.42;80.99;101839.34;5007744;28;20599;-72
2022/03/14 03:23:34;;;;;;;;;;;;;;;9.34;81.58;101836.03;5036881;28;20008;-71
2022/03/14 03:25:59;;;;;;;;;;;;;;;9.36;81.94;101850.00;5008125;28;19925;-70
2022/03/14 03:28:24;;;;;;;;;;;;;;;9.31;82.51;101857.97;5005477;28;19944;-69
2022/03/14 03:30:50;;;;;;;;;;;;;;;9.25;83.40;101859.00;5006615;28;20021;-70
2022/03/14 03:33:15;;;;;;;;;;;;;;;9.13;84.68;101857.53;5006417;28;19928;-69
2022/03/14 03:35:41;;;;;;;;;;;;;;;9.07;85.24;101860.28;5007245;28;20531;-69
2022/03/14 03:38:06;;;;;;;;;;;;;;;9.03;85.63;101868.28;5006620;28;19926;-69
2022/03/14 03:40:31;;;;;;;;;;;;;;;8.98;85.81;101871.84;5006798;28;19926;-70
2022/03/14 03:42:57;;;;;;;;;;;;;;;8.99;85.69;101875.34;5007460;28;19925;-71
2022/03/14 03:45:22;;;;;;;;;;;;;;;8.97;86.01;101877.13;5006614;28;19921;-71
2022/03/14 03:47:48;;;;;;;;;;;;;;;8.98;86.06;101877.09;5009400;28;20644;-70
2022/03/14 03:50:14;;;;;;;;;;;;;;;9.02;85.82;101884.91;5006555;28;19957;-73
2022/03/14 03:52:39;;;;;;;;;;;;;;;8.92;86.69;101886.88;5007379;28;19952;-72
2022/03/14 03:55:05;;;;;;;;;;;;;;;8.87;86.80;101887.00;5007413;28;20284;-72
2022/03/14 03:57:31;;;;;;;;;;;;;;;8.87;86.92;101883.50;4988524;28;19933;-72
2022/03/14 03:59:57;;;;;;;;;;;;;;;8.87;86.99;101893.97;5007718;28;19928;-72
2022/03/14 04:02:22;;;;;;;;;;;;;;;8.85;87.47;101901.00;5006198;28;19921;-71
2022/03/14 04:04:49;;;;;;;;;;;;;;;8.81;87.71;101898.47;5007096;28;20031;-73
2022/03/14 04:07:19;;;;;;;;;;;;;;;8.78;88.26;101903.78;5006394;28;19922;-71
2022/03/14 04:09:46;;;;;;;;;;;;;;;8.77;88.27;101907.28;4989555;28;19925;-72
2022/03/14 04:12:11;;;;;;;;;;;;;;;8.78;88.34;101906.41;4988932;28;19925;-72
2022/03/14 04:14:37;;;;;;;;;;;;;;;8.81;88.54;101916.81;5006213;28;20296;-73
2022/03/14 04:17:03;;;;;;;;;;;;;;;8.80;88.79;101915.09;4988936;28;20032;-72
2022/03/14 04:19:29;;;;;;;;;;;;;;;8.79;88.95;101923.84;5006746;28;20012;-70
2022/03/14 04:21:55;;;;;;;;;;;;;;;8.77;89.33;101922.13;5006772;28;20021;-71
2022/03/14 04:24:20;;;;;;;;;;;;;;;8.82;89.02;101917.66;5005900;28;20012;-70
2022/03/14 04:26:47;;;;;;;;;;;;;;;8.80;89.20;101922.94;5008713;28;19917;-70
2022/03/14 04:29:12;;;;;;;;;;;;;;;8.74;89.82;101930.94;5005993;28;19924;-71
2022/03/14 04:31:37;;;;;;;;;;;;;;;8.77;89.63;101933.50;5006019;28;19917;-71
2022/03/14 04:34:03;;;;;;;;;;;;;;;8.78;90.10;101943.09;5006653;28;19968;-71
2022/03/14 04:36:28;;;;;;;;;;;;;;;8.76;90.02;101947.50;5006346;28;20016;-71
2022/03/14 04:38:53;;;;;;;;;;;;;;;8.75;90.47;101953.63;5006874;28;20407;-74
2022/03/14 04:41:18;;;;;;;;;;;;;;;8.85;90.43;101953.41;5005229;28;19921;-71
2022/03/14 04:43:44;;;;;;;;;;;;;;;8.72;90.95;101963.31;5006031;28;19933;-72
2022/03/14 04:46:09;;;;;;;;;;;;;;;8.68;91.45;101967.75;5005969;28;20383;-72
2022/03/14 04:48:35;;;;;;;;;;;;;;;8.71;91.65;101972.06;5005608;28;20113;-73
2022/03/14 04:51:00;;;;;;;;;;;;;;;8.70;92.00;101973.84;5005460;28;19929;-73
2022/03/14 04:53:26;;;;;;;;;;;;;;;8.69;92.27;101973.84;5005153;28;19968;-72
2022/03/14 04:55:51;;;;;;;;;;;;;;;8.57;93.30;101982.81;5007123;28;19918;-72
2022/03/14 04:58:17;;;;;;;;;;;;;;;8.55;93.75;101982.84;5004581;28;19922;-73
2022/03/14 05:00:43;;;;;;;;;;;;;;;8.48;94.40;101987.38;5005010;28;20363;-69
2022/03/14 05:03:08;;;;;;;;;;;;;;;8.46;95.04;101989.09;4987269;28;19971;-69
2022/03/14 05:05:34;;;;;;;;;;;;;;;8.44;95.32;101996.13;5005184;28;20004;-70
2022/03/14 05:08:00;;;;;;;;;;;;;;;8.46;95.22;101999.59;5007011;28;19949;-70
2022/03/14 05:10:25;;;;;;;;;;;;;;;8.46;95.27;101999.59;5004251;28;19933;-70
2022/03/14 05:12:50;;;;;;;;;;;;;;;8.53;95.14;101997.75;4988118;28;19917;-71
2022/03/14 05:15:17;;;;;;;;;;;;;;;8.47;95.49;102009.19;5004300;28;21135;-71
2022/03/14 05:17:43;;;;;;;;;;;;;;;8.44;95.80;102016.19;5005580;28;19917;-71
2022/03/14 05:20:09;;;;;;;;;;;;;;;8.41;96.09;102017.13;5005034;28;19921;-69
2022/03/14 05:22:40;;;;;;;;;;;;;;;8.39;96.24;102031.16;5005299;28;20503;-71
2022/03/14 05:25:06;;;;;;;;;;;;;;;8.31;96.71;102036.53;5005934;28;19965;-69
2022/03/14 05:27:31;;;;;;;;;;;;;;;8.31;97.35;102037.41;5005660;28;19953;-70
2022/03/14 05:29:56;;;;;;;;;;;;;;;8.26;96.90;102047.06;5006095;28;19960;-70
2022/03/14 05:32:22;;;;;;;;;;;;;;;8.22;96.88;102044.53;5004889;28;19921;-70
2022/03/14 05:34:47;;;;;;;;;;;;;;;8.28;97.23;102050.53;5006439;28;19952;-71
2022/03/14 05:37:13;;;;;;;;;;;;;;;8.16;96.68;102056.84;5005648;28;19917;-71
2022/03/14 05:39:39;;;;;;;;;;;;;;;8.10;96.94;102064.81;5005233;28;19937;-70
2022/03/14 05:42:04;;;;;;;;;;;;;;;8.15;96.79;102062.09;5020260;28;19922;-72
2022/03/14 05:44:29;;;;;;;;;;;;;;;8.15;96.59;102073.47;5004660;28;19925;-72
2022/03/14 05:46:55;;;;;;;;;;;;;;;8.07;95.90;102077.94;5006515;28;19972;-71
2022/03/14 05:49:21;;;;;;;;;;;;;;;8.01;95.90;102073.66;5004239;28;19961;-71
2022/03/14 05:51:46;;;;;;;;;;;;;;;8.01;96.09;102086.75;5005646;28;19929;-72
2022/03/14 05:54:11;;;;;;;;;;;;;;;7.99;96.03;102082.44;5006908;28;19917;-72
2022/03/14 05:56:37;;;;;;;;;;;;;;;7.92;96.16;102092.13;5008992;28;19933;-71
2022/03/14 05:59:02;;;;;;;;;;;;;;;7.91;96.64;102095.63;5008373;28;19935;-71
2022/03/14 06:01:27;;;;;;;;;;;;;;;7.85;96.86;102090.50;5009103;28;19924;-70
2022/03/14 06:03:53;;;;;;;;;;;;;;;7.86;95.99;102100.94;5008206;28;20289;-71
2022/03/14 06:06:18;;;;;;;;;;;;;;;7.82;96.28;102106.25;5008341;28;20000;-71
2022/03/14 06:08:44;;;;;;;;;;;;;;;7.82;95.84;102114.97;5008085;28;19921;-71
2022/03/14 06:11:09;;;;;;;;;;;;;;;7.78;96.15;102110.66;5008505;28;19937;-72
2022/03/14 06:13:35;;;;;;;;;;;;;;;7.85;95.53;102117.53;5008262;28;19918;-71
2022/03/14 06:16:00;;;;;;;;;;;;;;;7.86;95.23;102131.47;5009131;28;20004;-72
2022/03/14 06:18:26;;;;;;;;;;;;;;;7.87;94.37;102126.22;5008918;28;20460;-71
2022/03/14 06:20:51;;;;;;;;;;;;;;;7.89;94.27;102134.91;5009457;28;19921;-70
2022/03/14 06:23:16;;;;;;;;;;;;;;;7.94;93.77;102131.38;5008993;28;20024;-70
2022/03/14 06:25:42;;;;;;;;;;;;;;;7.93;93.64;102140.97;5008723;28;19921;-70
2022/03/14 06:28:08;;;;;;;;;;;;;;;7.94;93.19;102147.94;4993008;28;19918;-72
2022/03/14 06:30:34;;;;;;;;;;;;;;;7.94;93.66;102153.16;5004989;28;19929;-73
2022/03/14 06:32:59;;;;;;;;;;;;;;;7.93;93.19;102164.50;5008847;28;19928;-71
2022/03/14 06:35:25;;;;;;;;;;;;;;;7.93;92.74;102169.75;5008284;28;20007;-71
2022/03/14 06:37:50;;;;;;;;;;;;;;;7.99;93.09;102176.66;5009286;28;20400;-73
2022/03/14 06:40:15;;;;;;;;;;;;;;;8.00;92.80;102179.22;5008655;28;19925;-72
2022/03/14 06:42:48;;;;;;;;;;;;;;;8.03;92.30;102180.97;4990044;28;20313;-71
2022/03/14 06:45:14;;;;;;;;;;;;;;;8.05;91.91;102176.53;4989872;28;19974;-72
2022/03/14 06:47:39;;;;;;;;;;;;;;;8.04;91.08;102180.94;4994572;28;19921;-70
2022/03/14 06:50:06;;;;;;;;;;;;;;;8.04;91.16;102183.53;5004899;28;19957;-70
2022/03/14 06:52:31;;;;;;;;;;;;;;;8.07;91.15;102195.72;4997847;28;19925;-72
2022/03/14 06:54:56;;;;;;;;;;;;;;;8.10;91.08;102189.59;4971904;28;19929;-70
2022/03/14 06:57:22;;;;;;;;;;;;;;;8.15;90.76;102193.88;4988100;28;19928;-71
2022/03/14 06:59:47;;;;;;;;;;;;;;;8.13;90.85;102200.00;4989479;28;19917;-72
2022/03/14 07:02:12;;;;;;;;;;;;;;;8.20;90.47;102206.91;4998027;28;19917;-72
2022/03/14 07:04:38;;;;;;;;;;;;;;;8.23;90.39;102211.22;4997075;28;19930;-73
2022/03/14 07:07:03;;;;;;;;;;;;;;;8.28;90.39;102210.25;4988868;28;20324;-71
2022/03/14 07:09:30;;;;;;;;;;;;;;;8.33;90.50;102208.41;4989134;28;19930;-71
2022/03/14 07:11:55;;;;;;;;;;;;;;;8.32;90.61;102211.91;5005090;28;20672;-72
2022/03/14 07:14:21;;;;;;;;;;;;;;;8.39;90.11;102212.69;4986868;28;19925;-73
2022/03/14 07:16:48;;;;;;;;;;;;;;;8.37;90.42;102217.13;4987283;28;19933;-72
2022/03/14 07:19:14;;;;;;;;;;;;;;;8.41;90.04;102221.41;4993809;28;20424;-73
2022/03/14 07:21:39;;;;;;;;;;;;;;;8.43;90.29;102218.78;4994271;28;19922;-72
2022/03/14 07:24:05;;;;;;;;;;;;;;;8.48;90.51;102222.19;4995499;28;19929;-73
2022/03/14 07:26:30;;;;;;;;;;;;;;;8.49;90.88;102218.69;4996519;28;20463;-73
2022/03/14 07:28:55;;;;;;;;;;;;;;;8.55;90.38;102222.97;4997603;28;19917;-73
2022/03/14 07:31:21;;;;;;;;;;;;;;;8.64;90.30;102226.31;4989047;28;20301;-72
2022/03/14 07:33:48;;;;;;;;;;;;;;;8.66;89.82;102231.53;4994890;28;19922;-73
2022/03/14 07:36:13;;;;;;;;;;;;;;;8.76;89.55;102227.88;4995610;28;19944;-72
2022/03/14 07:38:38;;;;;;;;;;;;;;;8.77;89.20;102236.56;4992343;28;19965;-73
2022/03/14 07:41:04;;;;;;;;;;;;;;;8.79;89.14;102240.94;4969820;28;20408;-72
2022/03/14 07:43:31;;;;;;;;;;;;;;;8.84;88.90;102245.19;4986155;28;21465;-72
2022/03/14 07:45:56;;;;;;;;;;;;;;;8.89;88.95;102240.75;4988717;28;20004;-72
2022/03/14 07:48:22;;;;;;;;;;;;;;;8.95;88.69;102251.13;4968249;28;19921;-73
2022/03/14 07:50:48;;;;;;;;;;;;;;;8.96;88.60;102252.88;4987248;28;19934;-72
2022/03/14 07:53:13;;;;;;;;;;;;;;;9.02;88.40;102260.63;4987191;28;20412;-71
2022/03/14 07:55:39;;;;;;;;;;;;;;;9.06;88.30;102262.28;4986958;28;19925;-71
2022/03/14 07:58:04;;;;;;;;;;;;;;;9.05;88.88;102263.19;4988080;28;20435;-71
2022/03/14 08:00:29;;;;;;;;;;;;;;;9.03;88.88;102266.72;4980728;28;19922;-71
2022/03/14 08:02:55;;;;;;;;;;;;;;;9.07;89.55;102276.28;4976207;28;19922;-76
2022/03/14 08:05:24;;;;;;;;;;;;;;;9.11;89.20;102280.56;4987947;28;20292;-73
2022/03/14 08:07:49;;;;;;;;;;;;;;;9.20;89.20;102279.53;5000517;28;20353;-74
2022/03/14 08:10:16;;;;;;;;;;;;;;;9.16;89.03;102283.09;4986725;28;20021;-73
2022/03/14 08:12:43;;;;;;;;;;;;;;;9.17;89.50;102285.72;4986018;28;19932;-75
2022/03/14 08:15:09;;;;;;;;;;;;;;;9.04;89.72;102286.81;4986796;28;19922;-74
2022/03/14 08:17:35;;;;;;;;;;;;;;;9.24;89.85;102289.09;4984843;28;19922;-74
2022/03/14 08:20:01;;;;;;;;;;;;;;;9.31;89.05;102290.72;4987507;28;19918;-75
2022/03/14 08:22:27;;;;;;;;;;;;;;;9.44;88.58;102293.97;4987778;28;19999;-75
2022/03/14 08:24:52;;;;;;;;;;;;;;;9.66;87.92;102290.94;4987327;28;19926;-75
2022/03/14 08:27:17;;;;;;;;;;;;;;;9.79;87.38;102288.94;4987608;28;19940;-75
2022/03/14 08:29:43;;;;;;;;;;;;;;;9.82;86.67;102295.00;4987075;28;20400;-73
2022/03/14 08:32:08;;;;;;;;;;;;;;;9.75;87.40;102299.50;4986061;28;19976;-74
2022/03/14 08:34:34;;;;;;;;;;;;;;;9.68;86.82;102303.16;4982285;28;19922;-74
2022/03/14 08:36:59;;;;;;;;;;;;;;;9.73;87.19;102308.31;4989459;28;19959;-75
2022/03/14 08:39:26;;;;;;;;;;;;;;;9.95;86.36;102305.25;4998521;28;19926;-76
2022/03/14 08:41:51;;;;;;;;;;;;;;;10.08;85.60;102306.72;5005038;28;19936;-74
2022/03/14 08:44:17;;;;;;;;;;;;;;;10.34;84.66;102303.53;5005764;28;19925;-74
2022/03/14 08:46:43;;;;;;;;;;;;;;;10.59;83.72;102302.13;5005583;28;20015;-73
2022/03/14 08:49:08;;;;;;;;;;;;;;;10.88;82.37;102298.81;5005263;28;19977;-73
2022/03/14 08:51:34;;;;;;;;;;;;;;;11.20;80.72;102289.25;5006720;28;19926;-73
2022/03/14 08:53:59;;;;;;;;;;;;;;;11.27;79.57;102285.53;5006332;28;19921;-74
2022/03/14 08:56:24;;;;;;;;;;;;;;;11.15;79.96;102299.00;5005140;28;19918;-75
2022/03/14 08:58:50;;;;;;;;;;;;;;;10.91;80.83;102309.28;5004939;28;20454;-76
2022/03/14 09:01:15;;;;;;;;;;;;;;;10.61;81.71;102316.13;5005952;28;19929;-75
2022/03/14 09:03:42;;;;;;;;;;;;;;;10.29;83.00;102328.19;5006185;28;20009;-75
2022/03/14 09:06:07;;;;;;;;;;;;;;;10.31;83.70;102340.38;5006895;28;20099;-74
2022/03/14 09:08:34;;;;;;;;;;;;;;;10.29;83.42;102336.06;5007200;28;19953;-75
2022/03/14 09:11:01;;;;;;;;;;;;;;;10.38;82.92;102340.25;5006762;28;20430;-74
2022/03/14 09:13:26;;;;;;;;;;;;;;;10.25;83.89;102351.03;5007283;28;20036;-75
2022/03/14 09:15:52;;;;;;;;;;;;;;;10.30;83.31;102348.31;5007374;28;20007;-76
2022/03/14 09:18:17;;;;;;;;;;;;;;;10.27;83.20;102351.84;5006956;28;19918;-76
2022/03/14 09:20:44;;;;;;;;;;;;;;;10.39;83.09;102349.88;5006040;28;19933;-75
2022/03/14 09:23:10;;;;;;;;;;;;;;;10.61;82.94;102352.91;5007196;28;19971;-76
2022/03/14 09:25:35;;;;;;;;;;;;;;;10.54;82.06;102359.19;5007405;28;20296;-75
2022/03/14 09:28:01;;;;;;;;;;;;;;;10.58;82.16;102361.75;5006449;28;19925;-77
2022/03/14 09:30:26;;;;;;;;;;;;;;;10.60;82.77;102365.16;5007372;28;19951;-77
2022/03/14 09:32:52;;;;;;;;;;;;;;;10.79;80.51;102363.00;5006784;28;19917;-77
2022/03/14 09:35:18;;;;;;;;;;;;;;;10.59;82.39;102378.34;5006319;28;19922;-76
2022/03/14 09:37:45;;;;;;;;;;;;;;;10.70;81.92;102375.47;5006314;28;19921;-76
2022/03/14 09:40:11;;;;;;;;;;;;;;;10.71;81.47;102379.84;5005667;28;20056;-76
2022/03/14 09:42:38;;;;;;;;;;;;;;;10.94;81.40;102372.28;5006140;28;19956;-75
2022/03/14 09:45:05;;;;;;;;;;;;;;;11.31;79.74;102370.53;5006713;28;20063;-75
2022/03/14 09:47:35;;;;;;;;;;;;;;;11.77;77.36;102363.22;5004559;28;19932;-75
2022/03/14 09:50:02;;;;;;;;;;;;;;;11.76;76.77;102362.31;4989258;28;19917;-77
2022/03/14 09:52:27;;;;;;;;;;;;;;;11.59;77.52;102364.56;5005030;28;19980;-76
2022/03/14 09:54:52;;;;;;;;;;;;;;;11.82;76.80;102377.09;5004856;28;19957;-76
2022/03/14 09:57:19;;;;;;;;;;;;;;;12.17;74.36;102356.84;5005719;28;20012;-76
2022/03/14 09:59:44;;;;;;;;;;;;;;;13.10;73.09;102361.91;4995245;28;19929;-75
2022/03/14 10:02:11;;;;;;;;;;;;;;;13.38;69.48;102341.63;5004263;28;19926;-75
2022/03/14 10:04:37;;;;;;;;;;;;;;;12.68;71.87;102360.59;5005426;28;20734;-76
2022/03/14 10:07:02;;;;;;;;;;;;;;;12.24;73.44;102372.47;5005674;28;19925;-75
2022/03/14 10:09:27;;;;;;;;;;;;;;;12.75;72.93;102382.34;5005809;28;19917;-76
2022/03/14 10:11:54;;;;;;;;;;;;;;;12.71;71.48;102378.06;5005009;28;19960;-76
2022/03/14 10:14:19;;;;;;;;;;;;;;;12.50;71.79;102383.09;5004917;28;19921;-76
2022/03/14 10:16:45;;;;;;;;;;;;;;;12.72;71.72;102385.06;5004536;28;19921;-75
2022/03/14 10:19:10;;;;;;;;;;;;;;;12.61;72.65;102392.44;5005310;28;19983;-76
2022/03/14 10:21:37;;;;;;;;;;;;;;;13.14;70.16;102376.69;5005933;28;19919;-75
2022/03/14 10:24:07;;;;;;;;;;;;;;;13.48;67.79;102373.88;5005714;28;19980;-76
2022/03/14 10:26:33;;;;;;;;;;;;;;;13.53;68.03;102372.78;5006821;28;20317;-75
2022/03/14 10:29:00;;;;;;;;;;;;;;;14.19;65.95;102344.91;5006084;28;20008;-75
2022/03/14 10:31:27;;;;;;;;;;;;;;;15.13;63.15;102345.63;5005644;28;19922;-76
2022/03/14 10:33:59;;;;;;;;;;;;;;;16.09;60.05;102328.25;5005398;28;19925;-76
2022/03/14 10:36:42;;;;;;;;;;;;;;;17.40;56.48;102307.72;5005370;28;20012;-76
2022/03/14 10:39:15;;;;;;;;;;;;;;;18.41;53.15;102315.59;5004351;28;19933;-74
2022/03/14 10:41:40;;;;;;;;;;;;;;;17.59;52.91;102323.53;5008393;28;19925;-76
2022/03/14 10:44:06;;;;;;;;;;;;;;;17.79;52.35;102324.28;5008290;28;19985;-75
2022/03/14 10:46:32;;;;;;;;;;;;;;;16.19;55.87;102411.75;5011219;28;19925;-74
2022/03/14 10:48:58;;;;;;;;;;;;;;;15.74;58.05;102434.88;5009153;28;19917;-74
2022/03/14 10:51:23;;;;;;;;;;;;;;;15.81;58.01;102434.63;4991681;28;19968;-75
2022/03/14 10:53:48;;;;;;;;;;;;;;;15.75;58.40;102447.19;5008736;28;20311;-75
2022/03/14 10:56:14;;;;;;;;;;;;;;;15.28;59.00;102464.16;5009248;28;19933;-75
2022/03/14 10:58:40;;;;;;;;;;;;;;;14.47;61.22;102461.09;5009336;28;19957;-75
2022/03/14 11:01:07;;;;;;;;;;;;;;;13.94;63.36;102475.31;5007063;28;19968;-75
2022/03/14 11:03:35;;;;;;;;;;;;;;;14.37;63.21;102465.84;5009998;28;19926;-75
2022/03/14 11:06:02;;;;;;;;;;;;;;;14.51;61.61;102457.38;5007759;28;19991;-74
2022/03/14 11:08:29;;;;;;;;;;;;;;;13.92;62.64;102474.47;5010682;28;20004;-75
2022/03/14 11:10:55;;;;;;;;;;;;;;;14.22;62.84;102464.63;5008746;28;19925;-75
2022/03/14 11:13:21;;;;;;;;;;;;;;;14.14;61.81;102461.41;5008736;28;19925;-75
2022/03/14 11:15:46;;;;;;;;;;;;;;;14.13;62.39;102464.06;5009881;28;19987;-74
2022/03/14 11:18:12;;;;;;;;;;;;;;;14.06;62.35;102466.06;5008560;28;19925;-76
2022/03/14 11:20:37;;;;;;;;;;;;;;;14.14;60.36;102466.69;5010386;28;19921;-76
2022/03/14 11:23:04;;;;;;;;;;;;;;;13.89;62.73;102478.09;5007343;28;19936;-75
2022/03/14 11:25:29;;;;;;;;;;;;;;;13.86;63.35;102487.91;4991098;28;19922;-76
2022/03/14 11:27:55;;;;;;;;;;;;;;;13.52;63.39;102491.69;5008117;28;19945;-76
2022/03/14 11:30:21;;;;;;;;;;;;;;;13.41;64.38;102498.19;5007599;28;19934;-77
2022/03/14 11:32:46;;;;;;;;;;;;;;;13.15;64.85;102494.53;5007983;28;20367;-74
2022/03/14 11:35:12;;;;;;;;;;;;;;;13.04;66.19;102509.84;5008625;28;19917;-74
2022/03/14 11:37:41;;;;;;;;;;;;;;;12.93;67.36;102515.47;5009028;28;19921;-74
2022/03/14 11:40:07;;;;;;;;;;;;;;;12.94;68.27;102534.78;5005873;28;20312;-75
2022/03/14 11:42:33;;;;;;;;;;;;;;;12.96;68.64;102530.31;4989924;28;19918;-76
2022/03/14 11:45:00;;;;;;;;;;;;;;;13.10;67.90;102528.16;5008035;28;20024;-76
2022/03/14 11:47:26;;;;;;;;;;;;;;;13.58;67.41;102528.44;5008335;28;20454;-76
2022/03/14 11:49:52;;;;;;;;;;;;;;;13.36;67.08;102521.19;5008663;28;20011;-75
2022/03/14 11:52:19;;;;;;;;;;;;;;;13.25;67.20;102528.56;5006602;28;19957;-75
2022/03/14 11:54:53;;;;;;;;;;;;;;;13.54;66.63;102527.69;5009915;28;19929;-75
2022/03/14 11:57:34;;;;;;;;;;;;;;;13.79;66.73;102526.88;5006591;28;20033;-75
2022/03/14 12:00:15;;;;;;;;;;;;;;;14.22;64.07;102530.72;5007845;28;19926;-75
2022/03/14 12:02:42;;;;;;;;;;;;;;;14.18;64.98;102526.44;5007405;28;20392;-75
2022/03/14 12:05:08;;;;;;;;;;;;;;;14.27;65.79;102530.53;5006842;28;19965;-76
2022/03/14 12:07:34;;;;;;;;;;;;;;;14.17;65.15;102537.06;5022767;28;20323;-76
2022/03/14 12:10:02;;;;;;;;;;;;;;;13.86;66.54;102538.13;5007265;28;20000;-76
2022/03/14 12:12:28;;;;;;;;;;;;;;;13.15;68.61;102544.69;5007727;28;20361;-77
2022/03/14 12:14:58;;;;;;;;;;;;;;;13.17;68.94;102556.97;5009897;28;19949;-76
2022/03/14 12:17:25;;;;;;;;;;;;;;;13.18;69.65;102548.16;5007216;28;19918;-77
2022/03/14 12:19:55;;;;;;;;;;;;;;;12.93;69.63;102551.50;4990522;28;19921;-76
2022/03/14 12:22:27;;;;;;;;;;;;;;;12.64;69.81;102550.59;5005882;28;20017;-77
2022/03/14 12:24:53;;;;;;;;;;;;;;;12.59;70.61;102555.09;5009493;28;19921;-75
2022/03/14 12:27:18;;;;;;;;;;;;;;;12.43;70.71;102557.31;4988545;28;20008;-75
2022/03/14 12:29:44;;;;;;;;;;;;;;;12.51;71.88;102565.88;5007694;28;19945;-76
2022/03/14 12:32:25;;;;;;;;;;;;;;;12.40;71.38;102560.91;5006441;28;19989;-76
2022/03/14 12:35:06;;;;;;;;;;;;;;;12.14;72.38;102562.44;5008836;28;19955;-76
2022/03/14 12:37:37;;;;;;;;;;;;;;;12.13;72.97;102573.03;5006444;28;21201;-77